Time;durP1;ratioP1;P1;durP2;ratioP2;P2;SDS_P1;SDS_P2;PMS_P1;PMS_P2;Temp;Humidity;BMP_temperature;BMP_pressure;BME280_temperature;BME280_humidity;BME280_pressure;Samples;Min_cycle;Max_cycle;Signal;HPM_P1;HPM_P2
2023/07/09 00:00:20;;;;;;;;;;;23.80;89.00;;;;;;5116838;28;20022;-53
2023/07/09 00:02:46;;;;;;;;;;;23.80;89.00;;;;;;5116729;28;19908;-53
2023/07/09 00:05:13;;;;;;;;;;;23.80;89.00;;;;;;5116740;28;19916;-53
2023/07/09 00:07:38;;;;;;;;;;;23.80;89.00;;;;;;5116643;28;19908;-50
2023/07/09 00:10:08;;;;;;;;;;;23.80;89.00;;;;;;5116347;28;19908;-52
2023/07/09 00:12:34;;;;;;;;;;;23.80;89.00;;;;;;5116541;28;19911;-53
2023/07/09 00:14:59;;;;;;;;;;;23.80;89.00;;;;;;5116454;28;19922;-52
2023/07/09 00:17:35;;;;;;;;;;;23.80;89.00;;;;;;5116169;28;19908;-50
2023/07/09 00:20:04;;;;;;;;;;;23.80;89.10;;;;;;5098369;28;19964;-50
2023/07/09 00:22:30;;;;;;;;;;;23.80;89.10;;;;;;5116412;28;19918;-53
2023/07/09 00:24:56;;;;;;;;;;;23.80;89.10;;;;;;5116102;28;19907;-53
2023/07/09 00:27:24;;;;;;;;;;;23.80;89.10;;;;;;5116350;28;19958;-51
2023/07/09 00:29:52;;;;;;;;;;;23.80;89.20;;;;;;5116344;28;19911;-53
2023/07/09 00:32:20;;;;;;;;;;;23.80;89.10;;;;;;5115748;28;19911;-51
2023/07/09 00:34:48;;;;;;;;;;;23.80;89.10;;;;;;5115795;28;20396;-51
2023/07/09 00:37:14;;;;;;;;;;;23.80;89.70;;;;;;5115802;28;20278;-49
2023/07/09 00:39:40;;;;;;;;;;;23.80;89.10;;;;;;5116111;28;19912;-53
2023/07/09 00:42:07;;;;;;;;;;;23.80;89.10;;;;;;5116004;28;20342;-48
2023/07/09 00:44:33;;;;;;;;;;;23.80;89.20;;;;;;5115605;28;20011;-48
2023/07/09 00:47:00;;;;;;;;;;;23.90;89.20;;;;;;5097719;28;20452;-51
2023/07/09 00:49:46;;;;;;;;;;;23.80;89.20;;;;;;5115897;28;19908;-48
2023/07/09 00:52:29;;;;;;;;;;;23.80;89.20;;;;;;5114984;28;20294;-51
2023/07/09 00:54:57;;;;;;;;;;;23.80;89.20;;;;;;5115837;28;20019;-50
2023/07/09 00:57:26;;;;;;;;;;;23.80;89.30;;;;;;5115585;28;19908;-50
2023/07/09 00:59:55;;;;;;;;;;;23.90;89.30;;;;;;5115754;28;19907;-53
2023/07/09 01:02:23;;;;;;;;;;;23.80;89.30;;;;;;5115667;28;19907;-50
2023/07/09 01:04:50;;;;;;;;;;;23.80;89.30;;;;;;5115551;28;19915;-51
2023/07/09 01:07:16;;;;;;;;;;;23.80;89.30;;;;;;5115214;28;19953;-50
2023/07/09 01:09:42;;;;;;;;;;;23.80;89.30;;;;;;5115223;28;19907;-51
2023/07/09 01:12:08;;;;;;;;;;;23.90;89.40;;;;;;5115378;28;19969;-51
2023/07/09 01:14:35;;;;;;;;;;;23.80;89.40;;;;;;5115482;28;19912;-48
2023/07/09 01:17:02;;;;;;;;;;;23.80;89.40;;;;;;5115374;28;19907;-53
2023/07/09 01:19:28;;;;;;;;;;;23.80;89.40;;;;;;5115311;28;19915;-49
2023/07/09 01:21:55;;;;;;;;;;;23.80;89.50;;;;;;5115332;28;19914;-51
2023/07/09 01:24:39;;;;;;;;;;;23.80;89.50;;;;;;5115236;28;19907;-52
2023/07/09 01:27:07;;;;;;;;;;;23.80;89.50;;;;;;5114935;28;19915;-50
2023/07/09 01:29:34;;;;;;;;;;;23.80;89.60;;;;;;5114782;28;20354;-50
2023/07/09 01:31:59;;;;;;;;;;;23.90;89.60;;;;;;5114817;28;20386;-48
2023/07/09 01:34:25;;;;;;;;;;;23.80;89.60;;;;;;5115160;28;19955;-52
2023/07/09 01:36:51;;;;;;;;;;;23.90;89.70;;;;;;5115310;28;19908;-53
2023/07/09 01:39:17;;;;;;;;;;;23.80;89.60;;;;;;5114599;28;19912;-52
2023/07/09 01:41:42;;;;;;;;;;;23.90;89.70;;;;;;5114659;28;20415;-51
2023/07/09 01:44:08;;;;;;;;;;;23.80;89.70;;;;;;5096376;28;20002;-50
2023/07/09 01:46:33;;;;;;;;;;;23.90;89.70;;;;;;5114625;28;19908;-53
2023/07/09 01:48:59;;;;;;;;;;;23.80;89.60;;;;;;5114499;28;19916;-50
2023/07/09 01:51:25;;;;;;;;;;;23.80;89.70;;;;;;5114842;28;19915;-50
2023/07/09 01:53:51;;;;;;;;;;;23.80;89.70;;;;;;5114661;28;19965;-49
2023/07/09 01:56:16;;;;;;;;;;;23.80;89.70;;;;;;5114375;28;19912;-52
2023/07/09 01:58:41;;;;;;;;;;;23.80;89.70;;;;;;5114032;28;19914;-48
2023/07/09 02:01:08;;;;;;;;;;;23.80;89.70;;;;;;5114389;28;19930;-53
2023/07/09 02:03:33;;;;;;;;;;;23.80;89.70;;;;;;5114690;28;20006;-51
2023/07/09 02:05:59;;;;;;;;;;;23.80;89.70;;;;;;5114287;28;20405;-52
2023/07/09 02:08:25;;;;;;;;;;;23.80;89.70;;;;;;5114703;28;19914;-49
2023/07/09 02:10:51;;;;;;;;;;;23.80;89.70;;;;;;5114592;28;20002;-51
2023/07/09 02:13:16;;;;;;;;;;;23.90;89.80;;;;;;5114182;28;19911;-51
2023/07/09 02:15:43;;;;;;;;;;;23.80;89.70;;;;;;5114272;28;19918;-52
2023/07/09 02:18:09;;;;;;;;;;;23.90;89.80;;;;;;5114410;28;19908;-52
2023/07/09 02:20:34;;;;;;;;;;;23.80;89.70;;;;;;5114442;28;19958;-49
2023/07/09 02:23:00;;;;;;;;;;;23.90;89.80;;;;;;5114791;28;20017;-50
2023/07/09 02:25:25;;;;;;;;;;;23.90;89.80;;;;;;5114464;28;19908;-49
2023/07/09 02:27:51;;;;;;;;;;;23.90;89.80;;;;;;5096223;28;19973;-51
2023/07/09 02:30:16;;;;;;;;;;;23.80;89.80;;;;;;5114065;28;19908;-48
2023/07/09 02:32:42;;;;;;;;;;;23.90;89.80;;;;;;5114320;28;19919;-54
2023/07/09 02:35:07;;;;;;;;;;;23.80;89.70;;;;;;5114062;28;19943;-52
2023/07/09 02:37:33;;;;;;;;;;;23.90;89.80;;;;;;5114309;28;20265;-49
2023/07/09 02:39:59;;;;;;;;;;;23.90;89.80;;;;;;5114293;28;19908;-51
2023/07/09 02:42:24;;;;;;;;;;;23.80;89.80;;;;;;5114248;28;19914;-51
2023/07/09 02:44:50;;;;;;;;;;;23.90;89.80;;;;;;5114106;28;19928;-51
2023/07/09 02:47:15;;;;;;;;;;;23.90;89.90;;;;;;5114535;28;20342;-50
2023/07/09 02:49:41;;;;;;;;;;;23.90;89.90;;;;;;5114218;28;19952;-48
2023/07/09 02:52:07;;;;;;;;;;;23.80;89.80;;;;;;5114142;28;20346;-51
2023/07/09 02:54:32;;;;;;;;;;;23.80;89.80;;;;;;5114121;28;19984;-50
2023/07/09 02:56:58;;;;;;;;;;;23.90;89.90;;;;;;5114101;28;19908;-50
2023/07/09 02:59:23;;;;;;;;;;;23.80;89.90;;;;;;5114179;28;19919;-53
2023/07/09 03:01:49;;;;;;;;;;;23.90;89.90;;;;;;5114079;28;20374;-52
2023/07/09 03:04:15;;;;;;;;;;;23.80;89.80;;;;;;5114091;28;20304;-50
2023/07/09 03:06:40;;;;;;;;;;;23.90;89.90;;;;;;5113938;28;19915;-52
2023/07/09 03:09:06;;;;;;;;;;;23.90;89.90;;;;;;5116372;28;19908;-50
2023/07/09 03:11:33;;;;;;;;;;;23.80;89.90;;;;;;5117787;28;19968;-52
2023/07/09 03:13:59;;;;;;;;;;;23.80;89.90;;;;;;5117617;28;19919;-53
2023/07/09 03:16:28;;;;;;;;;;;23.90;90.00;;;;;;5117423;28;19923;-51
2023/07/09 03:18:54;;;;;;;;;;;23.80;89.90;;;;;;5117416;28;19908;-49
2023/07/09 03:21:23;;;;;;;;;;;23.90;90.00;;;;;;5117373;28;19919;-49
2023/07/09 03:23:49;;;;;;;;;;;23.80;89.90;;;;;;5117289;28;20010;-49
2023/07/09 03:26:14;;;;;;;;;;;23.90;90.00;;;;;;5099372;28;19939;-52
2023/07/09 03:28:40;;;;;;;;;;;23.90;90.00;;;;;;5117244;28;19908;-52
2023/07/09 03:31:05;;;;;;;;;;;23.80;89.90;;;;;;5117473;28;19908;-48
2023/07/09 03:33:31;;;;;;;;;;;23.90;90.00;;;;;;5117308;28;20354;-51
2023/07/09 03:35:56;;;;;;;;;;;23.90;90.00;;;;;;5117330;28;19923;-47
2023/07/09 03:38:22;;;;;;;;;;;23.90;90.00;;;;;;5117316;28;19951;-51
2023/07/09 03:40:51;;;;;;;;;;;23.90;90.00;;;;;;5117240;28;19939;-51
2023/07/09 03:43:17;;;;;;;;;;;23.90;90.00;;;;;;5117273;28;19907;-53
2023/07/09 03:45:43;;;;;;;;;;;23.80;90.00;;;;;;5117094;28;20010;-47
2023/07/09 03:48:09;;;;;;;;;;;23.90;90.00;;;;;;5117125;28;19907;-52
2023/07/09 03:50:34;;;;;;;;;;;23.90;90.00;;;;;;5116769;28;19990;-51
2023/07/09 03:53:00;;;;;;;;;;;23.90;90.00;;;;;;5108973;28;19916;-52
2023/07/09 03:55:26;;;;;;;;;;;23.90;90.00;;;;;;5096403;28;19912;-53
2023/07/09 03:57:53;;;;;;;;;;;23.90;90.10;;;;;;5096799;28;19999;-52
2023/07/09 04:00:18;;;;;;;;;;;23.90;90.10;;;;;;5100978;28;19951;-49
2023/07/09 04:02:44;;;;;;;;;;;23.90;90.10;;;;;;5078354;28;19909;-53
2023/07/09 04:05:10;;;;;;;;;;;23.90;90.10;;;;;;5096136;28;20290;-51
2023/07/09 04:07:35;;;;;;;;;;;23.90;90.10;;;;;;5097065;28;19970;-50
2023/07/09 04:10:01;;;;;;;;;;;23.90;90.10;;;;;;5116729;28;20388;-52
2023/07/09 04:12:26;;;;;;;;;;;23.90;90.00;;;;;;5100870;28;19916;-53
2023/07/09 04:14:52;;;;;;;;;;;23.90;90.10;;;;;;5095822;28;19912;-50
2023/07/09 04:17:17;;;;;;;;;;;23.90;90.10;;;;;;5095919;28;19994;-53
2023/07/09 04:19:43;;;;;;;;;;;23.90;90.00;;;;;;5095163;28;19915;-52
2023/07/09 04:22:10;;;;;;;;;;;23.90;90.00;;;;;;5096088;28;19908;-50
2023/07/09 04:24:35;;;;;;;;;;;23.90;89.90;;;;;;5096268;28;19908;-49
2023/07/09 04:27:02;;;;;;;;;;;23.90;89.80;;;;;;5096339;28;19908;-47
2023/07/09 04:29:28;;;;;;;;;;;23.90;86.60;;;;;;5095943;28;19915;-52
2023/07/09 04:31:54;;;;;;;;;;;23.80;86.60;;;;;;5095798;28;19915;-51
2023/07/09 04:34:19;;;;;;;;;;;23.90;87.80;;;;;;5095759;28;19916;-51
2023/07/09 04:36:45;;;;;;;;;;;23.90;88.50;;;;;;5095780;28;19908;-50
2023/07/09 04:39:10;;;;;;;;;;;23.90;88.80;;;;;;5095464;28;19908;-52
2023/07/09 04:41:36;;;;;;;;;;;23.90;89.00;;;;;;5096283;28;19909;-52
2023/07/09 04:44:01;;;;;;;;;;;23.90;89.10;;;;;;5095361;28;19946;-52
2023/07/09 04:46:27;;;;;;;;;;;23.90;89.20;;;;;;5095401;28;20378;-47
2023/07/09 04:48:52;;;;;;;;;;;23.90;89.20;;;;;;5095508;28;20020;-52
2023/07/09 04:51:18;;;;;;;;;;;23.90;89.30;;;;;;5095541;28;19970;-53
2023/07/09 04:53:43;;;;;;;;;;;23.90;89.30;;;;;;5095009;28;19912;-53
2023/07/09 04:56:09;;;;;;;;;;;23.90;89.30;;;;;;5095448;28;19916;-52
2023/07/09 04:58:35;;;;;;;;;;;23.90;89.30;;;;;;5095981;28;19912;-52
2023/07/09 05:01:00;;;;;;;;;;;23.90;89.40;;;;;;5115687;28;19908;-51
2023/07/09 05:03:26;;;;;;;;;;;23.90;89.40;;;;;;5115917;28;19960;-50
2023/07/09 05:05:51;;;;;;;;;;;23.90;89.40;;;;;;5114999;28;20003;-51
2023/07/09 05:08:17;;;;;;;;;;;23.90;89.40;;;;;;5096777;28;19911;-52
2023/07/09 05:10:43;;;;;;;;;;;23.90;89.50;;;;;;5115455;28;19983;-53
2023/07/09 05:13:09;;;;;;;;;;;23.90;89.50;;;;;;5114991;28;20441;-52
2023/07/09 05:15:35;;;;;;;;;;;23.90;89.50;;;;;;5115032;28;19964;-51
2023/07/09 05:18:00;;;;;;;;;;;23.90;89.50;;;;;;5115721;28;19912;-52
2023/07/09 05:20:26;;;;;;;;;;;23.90;89.50;;;;;;5115361;28;19911;-48
2023/07/09 05:22:51;;;;;;;;;;;23.90;89.50;;;;;;5115584;28;19908;-52
2023/07/09 05:25:17;;;;;;;;;;;23.90;89.50;;;;;;5115175;28;19911;-51
2023/07/09 05:27:43;;;;;;;;;;;23.90;89.50;;;;;;5114883;28;19908;-52
2023/07/09 05:30:08;;;;;;;;;;;23.90;89.60;;;;;;5115046;28;19911;-49
2023/07/09 05:32:35;;;;;;;;;;;23.90;89.60;;;;;;5114869;28;19911;-52
2023/07/09 05:35:00;;;;;;;;;;;23.90;89.60;;;;;;5115042;28;19912;-52
2023/07/09 05:37:26;;;;;;;;;;;23.90;89.60;;;;;;5096785;28;19914;-51
2023/07/09 05:39:51;;;;;;;;;;;24.00;89.60;;;;;;5114968;28;19994;-51
2023/07/09 05:42:17;;;;;;;;;;;23.90;89.50;;;;;;5114666;28;19914;-52
2023/07/09 05:44:43;;;;;;;;;;;23.90;89.50;;;;;;5114695;28;19924;-53
2023/07/09 05:47:08;;;;;;;;;;;23.90;89.50;;;;;;5114886;28;19934;-52
2023/07/09 05:49:34;;;;;;;;;;;23.90;89.50;;;;;;5114875;28;19917;-53
2023/07/09 05:51:59;;;;;;;;;;;23.90;89.50;;;;;;5114349;28;19988;-50
2023/07/09 05:54:25;;;;;;;;;;;23.90;89.60;;;;;;5114429;28;19977;-53
2023/07/09 05:56:51;;;;;;;;;;;23.90;89.60;;;;;;5114731;28;19977;-51
2023/07/09 05:59:16;;;;;;;;;;;23.90;89.50;;;;;;5096516;28;20354;-49
2023/07/09 06:01:42;;;;;;;;;;;23.90;89.50;;;;;;5114615;28;19932;-50
2023/07/09 06:04:07;;;;;;;;;;;23.90;89.40;;;;;;5114578;28;19946;-51
2023/07/09 06:06:33;;;;;;;;;;;23.90;89.30;;;;;;5114526;28;19908;-52
2023/07/09 06:08:58;;;;;;;;;;;23.90;89.40;;;;;;5114607;28;20366;-51
2023/07/09 06:11:24;;;;;;;;;;;23.90;89.40;;;;;;5114537;28;19908;-50
2023/07/09 06:13:49;;;;;;;;;;;24.00;89.50;;;;;;5114144;28;20381;-52
2023/07/09 06:16:15;;;;;;;;;;;24.00;89.50;;;;;;5114191;28;19912;-50
2023/07/09 06:18:41;;;;;;;;;;;23.90;89.50;;;;;;5114324;28;19951;-54
2023/07/09 06:21:09;;;;;;;;;;;23.90;89.40;;;;;;5114496;28;19908;-49
2023/07/09 06:23:34;;;;;;;;;;;24.00;89.60;;;;;;5114385;28;20018;-49
2023/07/09 06:25:59;;;;;;;;;;;24.00;89.50;;;;;;5114468;28;19912;-53
2023/07/09 06:28:28;;;;;;;;;;;24.00;89.50;;;;;;5114319;28;19907;-53
2023/07/09 06:30:54;;;;;;;;;;;24.00;89.50;;;;;;5114179;28;19914;-50
2023/07/09 06:33:19;;;;;;;;;;;23.90;89.50;;;;;;5114154;28;19915;-52
2023/07/09 06:35:53;;;;;;;;;;;23.90;89.50;;;;;;5114152;28;19994;-53
2023/07/09 06:38:19;;;;;;;;;;;23.90;89.50;;;;;;5114150;28;19907;-53
2023/07/09 06:40:44;;;;;;;;;;;24.00;89.60;;;;;;5095725;28;19908;-50
2023/07/09 06:43:10;;;;;;;;;;;24.00;89.60;;;;;;5115371;28;19957;-50
2023/07/09 06:45:35;;;;;;;;;;;23.90;89.50;;;;;;5117586;28;19920;-51
2023/07/09 06:48:01;;;;;;;;;;;24.00;89.60;;;;;;5118144;28;19955;-52
2023/07/09 06:50:27;;;;;;;;;;;24.00;89.60;;;;;;5117847;28;19969;-51
2023/07/09 06:52:52;;;;;;;;;;;23.90;89.60;;;;;;5117860;28;20251;-50
2023/07/09 06:55:18;;;;;;;;;;;23.90;89.60;;;;;;5117580;28;20371;-50
2023/07/09 06:57:43;;;;;;;;;;;24.00;89.70;;;;;;5117379;28;19908;-51
2023/07/09 07:00:09;;;;;;;;;;;24.00;89.70;;;;;;5117632;28;19937;-51
2023/07/09 07:02:35;;;;;;;;;;;24.00;89.70;;;;;;5117904;28;20274;-52
2023/07/09 07:05:00;;;;;;;;;;;24.00;89.70;;;;;;5117641;28;19915;-52
2023/07/09 07:07:26;;;;;;;;;;;24.00;89.70;;;;;;5117699;28;19955;-48
2023/07/09 07:09:51;;;;;;;;;;;24.00;89.70;;;;;;5117650;28;20363;-51
2023/07/09 07:12:25;;;;;;;;;;;24.00;89.70;;;;;;5099510;28;19970;-51
2023/07/09 07:14:50;;;;;;;;;;;24.00;89.70;;;;;;5100041;28;19923;-52
2023/07/09 07:17:16;;;;;;;;;;;24.00;90.10;;;;;;5111141;28;19908;-52
2023/07/09 07:19:41;;;;;;;;;;;24.00;89.80;;;;;;5096909;28;19908;-52
2023/07/09 07:22:07;;;;;;;;;;;24.00;89.80;;;;;;5108480;28;20353;-53
2023/07/09 07:24:32;;;;;;;;;;;24.00;89.80;;;;;;5098072;28;19954;-51
2023/07/09 07:26:58;;;;;;;;;;;24.00;89.80;;;;;;5102098;28;19908;-52
2023/07/09 07:29:24;;;;;;;;;;;24.00;89.80;;;;;;5110962;28;19962;-50
2023/07/09 07:31:49;;;;;;;;;;;24.00;89.90;;;;;;5099404;28;20443;-51
2023/07/09 07:34:14;;;;;;;;;;;24.00;89.90;;;;;;5097270;28;19915;-51
2023/07/09 07:36:40;;;;;;;;;;;24.00;89.90;;;;;;5098339;28;20363;-48
2023/07/09 07:39:05;;;;;;;;;;;24.00;89.90;;;;;;5097822;28;19934;-53
2023/07/09 07:41:31;;;;;;;;;;;24.00;90.00;;;;;;5112139;28;20389;-53
2023/07/09 07:43:57;;;;;;;;;;;24.00;90.00;;;;;;5108361;28;20042;-52
2023/07/09 07:46:22;;;;;;;;;;;24.00;90.00;;;;;;5095972;28;20375;-53
2023/07/09 07:48:48;;;;;;;;;;;24.00;90.00;;;;;;5100862;28;19920;-51
2023/07/09 07:51:13;;;;;;;;;;;24.00;90.00;;;;;;5092980;28;19912;-49
2023/07/09 07:53:39;;;;;;;;;;;24.00;90.00;;;;;;5094340;28;19935;-51
2023/07/09 07:56:04;;;;;;;;;;;24.00;90.00;;;;;;5094014;28;19935;-50
2023/07/09 07:58:30;;;;;;;;;;;24.00;90.00;;;;;;5094834;28;20321;-50
2023/07/09 08:00:56;;;;;;;;;;;24.00;90.00;;;;;;5093642;28;19908;-53
2023/07/09 08:03:22;;;;;;;;;;;24.00;90.10;;;;;;5111491;28;19913;-52
2023/07/09 08:05:48;;;;;;;;;;;24.00;90.10;;;;;;5113391;28;20204;-51
2023/07/09 08:08:14;;;;;;;;;;;24.00;90.10;;;;;;5095901;28;19908;-52
2023/07/09 08:10:39;;;;;;;;;;;24.00;90.10;;;;;;5096287;28;19965;-50
2023/07/09 08:13:05;;;;;;;;;;;24.00;90.20;;;;;;5096066;28;20466;-53
2023/07/09 08:15:30;;;;;;;;;;;24.00;90.10;;;;;;5096427;28;20358;-52
2023/07/09 08:17:56;;;;;;;;;;;24.00;90.10;;;;;;5095993;28;19908;-54
2023/07/09 08:20:21;;;;;;;;;;;24.00;90.10;;;;;;5095992;28;19962;-51
2023/07/09 08:22:47;;;;;;;;;;;24.00;90.10;;;;;;5109918;28;20349;-50
2023/07/09 08:25:12;;;;;;;;;;;24.00;90.20;;;;;;5096945;28;19962;-51
2023/07/09 08:27:37;;;;;;;;;;;24.00;89.30;;;;;;5093016;28;19916;-52
2023/07/09 08:30:03;;;;;;;;;;;24.00;89.80;;;;;;5072799;28;20335;-53
2023/07/09 08:32:29;;;;;;;;;;;24.00;89.90;;;;;;5097553;28;19923;-51
2023/07/09 08:34:54;;;;;;;;;;;24.00;89.90;;;;;;5094491;28;19912;-52
2023/07/09 08:37:20;;;;;;;;;;;24.00;89.90;;;;;;5095218;28;20006;-49
2023/07/09 08:39:45;;;;;;;;;;;24.00;90.00;;;;;;5095363;28;20366;-52
2023/07/09 08:42:13;;;;;;;;;;;24.00;90.00;;;;;;5095224;28;20041;-51
2023/07/09 08:44:38;;;;;;;;;;;24.00;90.00;;;;;;5095501;28;20355;-50
2023/07/09 08:47:04;;;;;;;;;;;24.00;90.00;;;;;;5081165;28;19919;-49
2023/07/09 08:49:50;;;;;;;;;;;24.00;90.00;;;;;;5095541;28;19912;-49
2023/07/09 08:52:24;;;;;;;;;;;24.00;90.00;;;;;;5094621;28;20001;-54
2023/07/09 08:54:50;;;;;;;;;;;24.00;90.00;;;;;;5094929;28;20018;-51
2023/07/09 08:57:23;;;;;;;;;;;24.00;90.00;;;;;;5095647;28;19912;-51
2023/07/09 08:59:51;;;;;;;;;;;24.00;90.00;;;;;;5087118;28;20015;-51
2023/07/09 09:02:24;;;;;;;;;;;24.00;90.00;;;;;;5109064;28;19998;-49
2023/07/09 09:04:50;;;;;;;;;;;24.00;90.00;;;;;;5078121;28;19959;-53
2023/07/09 09:07:23;;;;;;;;;;;24.00;90.00;;;;;;5074423;28;19909;-49
2023/07/09 09:09:54;;;;;;;;;;;24.00;90.00;;;;;;5075098;28;19960;-50
2023/07/09 09:12:40;;;;;;;;;;;24.00;89.90;;;;;;5074685;28;19916;-52
2023/07/09 09:15:14;;;;;;;;;;;24.00;89.80;;;;;;5074660;28;19998;-52
2023/07/09 09:17:41;;;;;;;;;;;24.00;89.70;;;;;;5074564;28;19917;-50
2023/07/09 09:20:08;;;;;;;;;;;24.00;89.60;;;;;;5074409;28;19908;-52
2023/07/09 09:22:40;;;;;;;;;;;24.00;89.60;;;;;;5074237;28;19912;-51
2023/07/09 09:25:18;;;;;;;;;;;24.00;89.60;;;;;;5074383;28;19977;-49
2023/07/09 09:27:44;;;;;;;;;;;24.00;89.60;;;;;;5074257;28;19915;-49
2023/07/09 09:30:14;;;;;;;;;;;24.00;89.60;;;;;;5074355;28;19913;-51
2023/07/09 09:32:44;;;;;;;;;;;24.00;89.50;;;;;;5074721;28;19956;-49
2023/07/09 09:35:16;;;;;;;;;;;24.10;89.60;;;;;;5074398;28;20037;-52
2023/07/09 09:37:44;;;;;;;;;;;24.00;89.50;;;;;;5074265;28;19908;-52
2023/07/09 09:40:09;;;;;;;;;;;24.00;89.50;;;;;;5073927;28;19909;-53
2023/07/09 09:42:35;;;;;;;;;;;24.00;89.50;;;;;;5074265;28;19938;-50
2023/07/09 09:45:01;;;;;;;;;;;24.00;89.50;;;;;;5074149;28;19927;-50
2023/07/09 09:47:28;;;;;;;;;;;24.00;89.50;;;;;;5074239;28;19908;-51
2023/07/09 09:49:54;;;;;;;;;;;24.00;89.60;;;;;;5073935;28;19908;-52
2023/07/09 09:52:19;;;;;;;;;;;24.00;89.60;;;;;;5074334;28;19919;-47
2023/07/09 09:54:51;;;;;;;;;;;24.00;89.60;;;;;;5055942;28;19923;-50
2023/07/09 09:57:17;;;;;;;;;;;24.00;89.60;;;;;;5074027;28;19915;-50
2023/07/09 09:59:45;;;;;;;;;;;24.00;89.50;;;;;;5074026;28;19916;-53
2023/07/09 10:02:21;;;;;;;;;;;24.00;90.00;;;;;;5055748;28;19981;-50
2023/07/09 10:04:46;;;;;;;;;;;24.00;89.50;;;;;;5073824;28;19908;-50
2023/07/09 10:07:19;;;;;;;;;;;24.00;89.50;;;;;;5073792;28;19908;-50
2023/07/09 10:09:49;;;;;;;;;;;24.00;89.50;;;;;;5073905;28;19958;-53
2023/07/09 10:12:36;;;;;;;;;;;24.00;89.40;;;;;;5073539;28;19909;-52
2023/07/09 10:15:04;;;;;;;;;;;24.00;89.40;;;;;;5073788;28;20252;-49
2023/07/09 10:17:36;;;;;;;;;;;24.00;89.50;;;;;;5073014;28;19919;-52
2023/07/09 10:20:01;;;;;;;;;;;24.00;89.40;;;;;;5073598;28;19919;-51
2023/07/09 10:22:29;;;;;;;;;;;24.00;89.40;;;;;;5073360;28;19909;-53
2023/07/09 10:25:07;;;;;;;;;;;24.00;89.50;;;;;;5073240;28;20351;-52
2023/07/09 10:27:51;;;;;;;;;;;24.00;89.50;;;;;;5073716;28;20001;-53
2023/07/09 10:30:33;;;;;;;;;;;24.00;89.50;;;;;;5073362;28;19999;-49
2023/07/09 10:33:02;;;;;;;;;;;24.00;89.50;;;;;;5055734;28;19912;-53
2023/07/09 10:35:39;;;;;;;;;;;24.00;89.50;;;;;;5073263;28;19913;-51
2023/07/09 10:38:19;;;;;;;;;;;24.00;89.50;;;;;;5073153;28;19908;-53
2023/07/09 10:40:49;;;;;;;;;;;24.00;89.50;;;;;;5073662;28;19908;-50
2023/07/09 10:43:18;;;;;;;;;;;24.00;89.50;;;;;;5073407;28;19913;-52
2023/07/09 10:45:47;;;;;;;;;;;24.00;89.50;;;;;;5073368;28;19920;-53
2023/07/09 10:48:21;;;;;;;;;;;24.00;89.50;;;;;;5073511;28;19995;-50
2023/07/09 10:50:49;;;;;;;;;;;24.00;89.60;;;;;;5073469;28;19908;-53
2023/07/09 10:53:21;;;;;;;;;;;24.00;89.60;;;;;;5073078;28;20021;-51
2023/07/09 10:56:06;;;;;;;;;;;24.00;89.60;;;;;;5073567;28;19912;-51
2023/07/09 10:58:35;;;;;;;;;;;24.00;89.60;;;;;;5055352;28;19916;-53
2023/07/09 11:01:01;;;;;;;;;;;24.00;89.60;;;;;;5073420;28;19909;-50
2023/07/09 11:03:34;;;;;;;;;;;24.00;89.60;;;;;;5073009;28;19916;-50
2023/07/09 11:05:59;;;;;;;;;;;24.00;89.60;;;;;;5075936;28;19974;-52
2023/07/09 11:08:28;;;;;;;;;;;24.00;89.70;;;;;;5076260;28;19912;-53
2023/07/09 11:11:02;;;;;;;;;;;24.00;89.70;;;;;;5093070;28;19912;-53
2023/07/09 11:13:35;;;;;;;;;;;24.10;89.70;;;;;;5085447;28;19912;-51
2023/07/09 11:16:01;;;;;;;;;;;24.00;89.70;;;;;;5090112;28;20433;-49
2023/07/09 11:18:29;;;;;;;;;;;24.00;89.60;;;;;;5092763;28;19908;-50
2023/07/09 11:20:59;;;;;;;;;;;24.00;89.60;;;;;;5088955;28;19920;-53
2023/07/09 11:23:25;;;;;;;;;;;24.00;89.60;;;;;;5093444;28;20357;-53
2023/07/09 11:26:09;;;;;;;;;;;24.00;89.50;;;;;;5092796;28;20385;-52
2023/07/09 11:28:35;;;;;;;;;;;24.00;89.60;;;;;;5093141;28;19908;-52
2023/07/09 11:31:06;;;;;;;;;;;24.00;89.60;;;;;;5092907;28;19965;-50
2023/07/09 11:33:31;;;;;;;;;;;24.00;89.60;;;;;;5076715;28;19962;-54
2023/07/09 11:36:06;;;;;;;;;;;24.00;89.70;;;;;;5076746;28;19923;-49
2023/07/09 11:38:38;;;;;;;;;;;24.00;89.70;;;;;;5076455;28;19917;-49
2023/07/09 11:41:24;;;;;;;;;;;24.10;89.70;;;;;;5076833;28;19969;-53
2023/07/09 11:43:49;;;;;;;;;;;24.00;89.60;;;;;;5076861;28;19909;-53
2023/07/09 11:46:18;;;;;;;;;;;24.00;89.60;;;;;;5091690;28;20345;-53
2023/07/09 11:48:43;;;;;;;;;;;24.00;89.50;;;;;;5075960;28;19915;-53
2023/07/09 11:51:16;;;;;;;;;;;24.10;89.60;;;;;;5076518;28;19909;-53
2023/07/09 11:53:47;;;;;;;;;;;24.10;89.50;;;;;;5058534;28;19913;-50
2023/07/09 11:56:13;;;;;;;;;;;24.00;89.50;;;;;;5058384;28;19916;-51
2023/07/09 11:58:47;;;;;;;;;;;24.00;89.50;;;;;;5076380;28;20283;-53
2023/07/09 12:01:15;;;;;;;;;;;24.00;89.50;;;;;;5075880;28;19908;-51
2023/07/09 12:03:42;;;;;;;;;;;24.00;89.50;;;;;;5075772;28;19916;-54
2023/07/09 12:06:23;;;;;;;;;;;24.00;89.50;;;;;;5076247;28;20335;-53
2023/07/09 12:08:49;;;;;;;;;;;24.00;89.50;;;;;;5076150;28;19909;-52
2023/07/09 12:11:19;;;;;;;;;;;24.10;89.60;;;;;;5075844;28;20371;-51
2023/07/09 12:13:44;;;;;;;;;;;24.10;89.50;;;;;;5075648;28;19959;-52
2023/07/09 12:16:36;;;;;;;;;;;24.10;89.60;;;;;;5076307;28;20319;-52
2023/07/09 12:19:02;;;;;;;;;;;24.10;89.50;;;;;;5072843;28;19908;-51
2023/07/09 12:21:27;;;;;;;;;;;24.00;89.50;;;;;;5075514;28;19915;-54
2023/07/09 12:23:54;;;;;;;;;;;24.10;89.60;;;;;;5075863;28;19908;-52
2023/07/09 12:26:20;;;;;;;;;;;24.10;89.60;;;;;;5075885;28;20431;-53
2023/07/09 12:28:53;;;;;;;;;;;24.10;89.50;;;;;;5075503;28;19959;-52
2023/07/09 12:31:20;;;;;;;;;;;24.10;89.60;;;;;;5075725;28;19915;-52
2023/07/09 12:33:47;;;;;;;;;;;24.10;89.60;;;;;;5075377;28;20352;-50
2023/07/09 12:36:14;;;;;;;;;;;24.10;89.50;;;;;;5075286;28;19919;-49
2023/07/09 12:38:44;;;;;;;;;;;24.10;89.50;;;;;;5057670;28;20314;-54
2023/07/09 12:41:17;;;;;;;;;;;24.10;89.50;;;;;;5075003;28;19909;-52
2023/07/09 12:43:43;;;;;;;;;;;24.10;89.60;;;;;;5075456;28;20325;-51
2023/07/09 12:46:08;;;;;;;;;;;24.10;90.00;;;;;;5075777;28;19963;-51
2023/07/09 12:48:34;;;;;;;;;;;24.10;89.50;;;;;;5074988;28;19962;-55
2023/07/09 12:50:59;;;;;;;;;;;24.10;89.60;;;;;;5075167;28;20347;-50
2023/07/09 12:53:28;;;;;;;;;;;24.10;89.50;;;;;;5075319;28;19982;-53
2023/07/09 12:55:56;;;;;;;;;;;24.10;89.50;;;;;;5074709;28;20289;-51
2023/07/09 12:58:26;;;;;;;;;;;24.10;89.60;;;;;;5075118;28;20340;-53
2023/07/09 13:00:52;;;;;;;;;;;24.10;89.60;;;;;;5074993;28;19915;-51
2023/07/09 13:03:20;;;;;;;;;;;24.10;89.60;;;;;;5074984;28;19954;-55
2023/07/09 13:05:53;;;;;;;;;;;24.10;89.60;;;;;;5074790;28;19999;-50
2023/07/09 13:08:19;;;;;;;;;;;24.10;89.50;;;;;;5074950;28;20256;-52
2023/07/09 13:10:44;;;;;;;;;;;24.10;89.60;;;;;;5074955;28;19938;-50
2023/07/09 13:13:12;;;;;;;;;;;24.10;89.60;;;;;;5074905;28;19916;-54
2023/07/09 13:15:37;;;;;;;;;;;24.10;89.60;;;;;;5074717;28;19966;-50
2023/07/09 13:18:04;;;;;;;;;;;24.10;89.50;;;;;;5074577;28;19908;-51
2023/07/09 13:20:30;;;;;;;;;;;24.10;89.50;;;;;;5074602;28;19908;-52
2023/07/09 13:22:56;;;;;;;;;;;24.10;89.50;;;;;;5074387;28;20264;-53
2023/07/09 13:25:22;;;;;;;;;;;24.10;89.40;;;;;;5074593;28;19935;-53
2023/07/09 13:27:47;;;;;;;;;;;24.10;89.40;;;;;;5074122;28;19915;-55
2023/07/09 13:30:13;;;;;;;;;;;24.10;89.40;;;;;;5074051;28;20003;-49
2023/07/09 13:32:38;;;;;;;;;;;24.10;89.40;;;;;;5074006;28;19912;-52
2023/07/09 13:35:15;;;;;;;;;;;24.10;89.40;;;;;;5079854;28;19916;-49
2023/07/09 13:37:40;;;;;;;;;;;24.10;89.50;;;;;;5089558;28;19923;-48
2023/07/09 13:40:07;;;;;;;;;;;24.10;89.60;;;;;;5099114;28;19912;-51
2023/07/09 13:42:32;;;;;;;;;;;24.10;89.60;;;;;;5092564;28;19965;-50
2023/07/09 13:44:58;;;;;;;;;;;24.10;89.50;;;;;;5094170;28;19924;-48
2023/07/09 13:47:23;;;;;;;;;;;24.10;89.40;;;;;;5093517;28;19919;-49
2023/07/09 13:49:49;;;;;;;;;;;24.10;89.40;;;;;;5093028;28;19920;-50
2023/07/09 13:52:16;;;;;;;;;;;24.10;89.40;;;;;;5092973;28;19995;-49
2023/07/09 13:54:41;;;;;;;;;;;24.10;89.90;;;;;;5091711;28;19916;-48
2023/07/09 13:57:12;;;;;;;;;;;24.10;89.30;;;;;;5093826;28;19943;-47
2023/07/09 13:59:37;;;;;;;;;;;24.10;89.30;;;;;;5102423;28;19940;-52
2023/07/09 14:02:15;;;;;;;;;;;24.10;89.30;;;;;;5092288;28;19954;-49
2023/07/09 14:04:40;;;;;;;;;;;24.10;89.20;;;;;;5114741;28;19918;-48
2023/07/09 14:07:08;;;;;;;;;;;24.10;89.70;;;;;;5094026;28;19912;-49
2023/07/09 14:09:34;;;;;;;;;;;24.10;89.20;;;;;;5110243;28;19958;-49
2023/07/09 14:11:59;;;;;;;;;;;24.10;89.20;;;;;;5100498;28;19955;-49
2023/07/09 14:14:30;;;;;;;;;;;24.10;89.20;;;;;;5093861;28;19919;-49
2023/07/09 14:16:56;;;;;;;;;;;24.10;89.20;;;;;;5075344;28;19923;-49